createdAt,value
2017-09-20T00:00:23.159Z,84.78
2017-09-20T00:02:50.629Z,85.21
2017-09-20T00:05:18.128Z,85.40
2017-09-20T00:07:45.600Z,85.43
2017-09-20T00:10:13.102Z,85.63
2017-09-20T00:12:40.577Z,85.28
2017-09-20T00:15:08.070Z,82.02
2017-09-20T00:17:35.533Z,79.73
2017-09-20T00:20:03.038Z,79.88
2017-09-20T00:22:30.528Z,79.82
2017-09-20T00:24:58.051Z,79.82
2017-09-20T00:27:25.544Z,79.59
2017-09-20T00:29:53.008Z,78.92
2017-09-20T00:32:20.498Z,79.61
2017-09-20T00:34:47.957Z,80.48
2017-09-20T00:37:15.504Z,81.15
2017-09-20T00:39:42.967Z,81.57
2017-09-20T00:42:10.430Z,82.32
2017-09-20T00:44:37.931Z,83.45
2017-09-20T00:47:05.389Z,83.62
2017-09-20T00:49:32.894Z,83.65
2017-09-20T00:52:00.381Z,83.07
2017-09-20T00:54:27.876Z,82.21
2017-09-20T00:56:55.342Z,82.09
2017-09-20T00:59:22.863Z,81.64
2017-09-20T01:01:50.356Z,81.78
2017-09-20T01:04:18.522Z,81.50
2017-09-20T01:06:46.017Z,81.18
2017-09-20T01:09:13.507Z,81.49
2017-09-20T01:11:41.005Z,81.47
2017-09-20T01:14:08.481Z,81.04
2017-09-20T01:16:36.013Z,80.48
2017-09-20T01:19:03.500Z,80.15
2017-09-20T01:21:42.759Z,80.24
2017-09-20T01:24:10.208Z,80.18
2017-09-20T01:26:37.718Z,80.36
2017-09-20T01:29:05.196Z,80.36
2017-09-20T01:31:32.677Z,80.82
2017-09-20T01:34:00.161Z,80.67
2017-09-20T01:36:27.645Z,80.99
2017-09-20T01:38:55.150Z,80.77
2017-09-20T01:41:22.766Z,80.36
2017-09-20T01:43:50.225Z,80.06
2017-09-20T01:46:17.680Z,80.78
2017-09-20T01:48:45.165Z,80.42
2017-09-20T01:51:12.629Z,80.76
2017-09-20T01:53:40.110Z,81.02
2017-09-20T01:56:07.571Z,81.28
2017-09-20T01:58:35.105Z,81.33
2017-09-20T02:01:02.569Z,80.88
2017-09-20T02:03:30.041Z,80.61
2017-09-20T02:05:57.577Z,80.50
2017-09-20T02:08:25.056Z,80.26
2017-09-20T02:10:52.577Z,79.97
2017-09-20T02:13:20.061Z,79.93
2017-09-20T02:15:47.541Z,80.29
2017-09-20T02:18:15.010Z,80.22
2017-09-20T02:20:42.512Z,80.50
2017-09-20T02:23:09.981Z,80.59
2017-09-20T02:25:37.475Z,80.20
2017-09-20T02:28:04.976Z,79.39
2017-09-20T02:30:32.473Z,79.93
2017-09-20T02:32:59.993Z,80.79
2017-09-20T02:35:27.481Z,80.77
2017-09-20T02:37:55.006Z,79.96
2017-09-20T02:40:22.490Z,79.55
2017-09-20T02:42:49.981Z,78.71
2017-09-20T02:45:17.444Z,79.03
2017-09-20T02:47:45.048Z,79.37
2017-09-20T02:50:12.515Z,79.54
2017-09-20T02:52:39.965Z,79.54
2017-09-20T02:55:07.460Z,78.96
2017-09-20T02:57:35.501Z,79.45
2017-09-20T03:00:03.005Z,79.85
2017-09-20T03:02:30.760Z,79.78
2017-09-20T03:04:58.260Z,80.23
2017-09-20T03:07:25.734Z,80.34
2017-09-20T03:09:53.213Z,79.93
2017-09-20T03:12:20.664Z,79.41
2017-09-20T03:14:49.073Z,79.81
2017-09-20T03:17:16.568Z,79.55
2017-09-20T03:19:44.069Z,79.44
2017-09-20T03:22:11.571Z,79.09
2017-09-20T03:24:39.966Z,78.92
2017-09-20T03:27:07.476Z,78.22
2017-09-20T03:29:34.975Z,77.60
2017-09-20T03:32:02.457Z,77.68
2017-09-20T03:34:29.915Z,78.25
2017-09-20T03:36:57.480Z,78.44
2017-09-20T03:39:24.954Z,78.10
2017-09-20T03:41:52.577Z,78.11
2017-09-20T03:44:20.037Z,78.04
2017-09-20T03:46:47.520Z,77.64
2017-09-20T03:49:14.999Z,77.08
2017-09-20T03:51:42.450Z,76.87
2017-09-20T03:54:09.963Z,76.56
2017-09-20T03:56:37.417Z,76.70
2017-09-20T03:59:04.913Z,76.74
2017-09-20T04:01:32.379Z,76.97
2017-09-20T04:03:59.873Z,76.93
2017-09-20T04:06:27.367Z,76.96
2017-09-20T04:08:54.827Z,77.16
2017-09-20T04:11:22.346Z,78.11
2017-09-20T04:13:49.804Z,78.36
2017-09-20T04:16:17.301Z,78.39
2017-09-20T04:18:44.748Z,78.64
2017-09-20T04:21:12.241Z,78.71
2017-09-20T04:23:39.696Z,78.96
2017-09-20T04:26:07.194Z,78.68
2017-09-20T04:28:34.658Z,78.48
2017-09-20T04:31:02.149Z,78.21
2017-09-20T04:33:29.637Z,78.47
2017-09-20T04:35:57.102Z,78.17
2017-09-20T04:38:24.602Z,77.90
2017-09-20T04:40:52.089Z,77.68
2017-09-20T04:43:19.591Z,77.65
2017-09-20T04:45:47.061Z,77.16
2017-09-20T04:48:14.593Z,76.93
2017-09-20T04:50:42.101Z,77.19
2017-09-20T04:53:09.556Z,77.78
2017-09-20T04:55:37.053Z,77.63
2017-09-20T04:58:04.505Z,76.87
2017-09-20T05:00:32.027Z,76.68
2017-09-20T05:02:59.462Z,76.71
2017-09-20T05:05:26.947Z,76.47
2017-09-20T05:07:54.442Z,76.10
2017-09-20T05:10:21.946Z,76.40
2017-09-20T05:12:49.408Z,76.39
2017-09-20T05:15:16.900Z,76.68
2017-09-20T05:17:44.382Z,76.67
2017-09-20T05:20:11.878Z,77.01
2017-09-20T05:22:39.356Z,77.16
2017-09-20T05:25:06.920Z,77.31
2017-09-20T05:27:34.447Z,76.81
2017-09-20T05:30:01.956Z,76.47
2017-09-20T05:32:29.461Z,76.84
2017-09-20T05:34:56.947Z,76.80
2017-09-20T05:37:24.423Z,77.05
2017-09-20T05:39:51.903Z,77.06
2017-09-20T05:42:19.401Z,76.56
2017-09-20T05:44:46.850Z,76.35
2017-09-20T05:47:14.354Z,76.45
2017-09-20T05:49:41.833Z,76.31
2017-09-20T05:52:09.319Z,76.04
2017-09-20T05:54:36.818Z,76.23
2017-09-20T05:57:04.390Z,76.62
2017-09-20T05:59:31.897Z,76.40
2017-09-20T06:01:59.397Z,76.25
2017-09-20T06:04:26.915Z,76.29
2017-09-20T06:06:54.584Z,76.29
2017-09-20T06:09:22.165Z,76.41
2017-09-20T06:11:49.644Z,76.59
2017-09-20T06:14:17.209Z,76.71
2017-09-20T06:16:44.679Z,76.85
2017-09-20T06:19:12.187Z,76.78
2017-09-20T06:21:39.663Z,76.37
2017-09-20T06:24:07.149Z,76.51
2017-09-20T06:26:34.649Z,76.45
2017-09-20T06:29:02.130Z,76.46
2017-09-20T06:31:29.620Z,76.69
2017-09-20T06:33:57.085Z,76.81
2017-09-20T06:36:24.617Z,76.51
2017-09-20T06:38:52.116Z,76.50
2017-09-20T06:41:19.625Z,76.18
2017-09-20T06:43:47.093Z,75.82
2017-09-20T06:46:14.566Z,75.85
2017-09-20T06:48:42.060Z,75.77
2017-09-20T06:51:09.516Z,75.73
2017-09-20T06:53:37.081Z,75.97
2017-09-20T06:56:04.589Z,75.48
2017-09-20T06:58:32.147Z,74.93
2017-09-20T07:00:59.601Z,74.46
2017-09-20T07:03:27.184Z,74.36
2017-09-20T07:05:54.645Z,74.32
2017-09-20T07:08:22.198Z,74.50
2017-09-20T07:10:49.658Z,75.25
2017-09-20T07:13:17.136Z,75.34
2017-09-20T07:15:44.697Z,74.64
2017-09-20T07:18:12.198Z,74.84
2017-09-20T07:20:39.704Z,75.11
2017-09-20T07:23:07.178Z,75.17
2017-09-20T07:25:34.682Z,75.02
2017-09-20T07:28:02.185Z,74.78
2017-09-20T07:30:29.677Z,74.36
2017-09-20T07:32:57.201Z,73.99
2017-09-20T07:35:24.663Z,74.09
2017-09-20T07:37:52.207Z,73.92
2017-09-20T07:40:19.689Z,73.46
2017-09-20T07:42:47.207Z,73.42
2017-09-20T07:45:14.666Z,73.49
2017-09-20T07:47:42.174Z,73.37
2017-09-20T07:50:09.667Z,73.41
2017-09-20T07:52:37.142Z,74.07
2017-09-20T07:55:05.650Z,74.37
2017-09-20T07:57:33.202Z,74.10
2017-09-20T08:00:00.721Z,73.92
2017-09-20T08:02:28.261Z,73.78
2017-09-20T08:04:55.793Z,73.76
2017-09-20T08:07:23.272Z,73.52
2017-09-20T08:09:50.780Z,73.42
2017-09-20T08:12:18.293Z,73.04
2017-09-20T08:14:46.167Z,72.79
2017-09-20T08:17:13.656Z,73.06
2017-09-20T08:19:41.162Z,72.77
2017-09-20T08:22:08.729Z,73.02
2017-09-20T08:24:36.249Z,73.11
2017-09-20T08:27:03.771Z,73.11
2017-09-20T08:29:31.314Z,73.25
2017-09-20T08:31:58.868Z,73.03
2017-09-20T08:34:26.362Z,73.52
2017-09-20T08:36:53.910Z,73.69
2017-09-20T08:39:21.408Z,73.73
2017-09-20T08:41:49.503Z,74.04
2017-09-20T08:44:17.014Z,74.61
2017-09-20T08:46:44.482Z,75.28
2017-09-20T08:49:11.978Z,75.45
2017-09-20T08:51:39.478Z,75.36
2017-09-20T08:54:06.981Z,75.55
2017-09-20T08:56:34.454Z,75.23
2017-09-20T08:59:01.960Z,75.38
2017-09-20T09:01:29.413Z,75.83
2017-09-20T09:03:56.910Z,76.42
2017-09-20T09:06:24.384Z,76.39
2017-09-20T09:08:51.884Z,76.60
2017-09-20T09:11:19.394Z,76.52
2017-09-20T09:13:46.869Z,76.54
2017-09-20T09:16:14.509Z,76.86
2017-09-20T09:18:41.973Z,76.96
2017-09-20T09:21:09.476Z,77.19
2017-09-20T09:23:36.945Z,77.04
2017-09-20T09:26:04.528Z,76.76
2017-09-20T09:28:32.022Z,76.42
2017-09-20T09:30:59.547Z,76.04
2017-09-20T09:33:27.026Z,75.85
2017-09-20T09:35:54.557Z,75.90
2017-09-20T09:38:22.105Z,75.68
2017-09-20T09:40:49.606Z,75.50
2017-09-20T09:43:17.134Z,75.05
2017-09-20T09:45:44.623Z,74.37
2017-09-20T09:48:12.169Z,74.78
2017-09-20T09:50:39.629Z,74.52
2017-09-20T09:53:07.180Z,74.21
2017-09-20T09:55:34.663Z,74.07
2017-09-20T09:58:02.230Z,73.18
2017-09-20T10:00:29.713Z,72.64
2017-09-20T10:02:57.229Z,72.83
2017-09-20T10:05:24.745Z,72.26
2017-09-20T10:07:52.229Z,72.33
2017-09-20T10:10:19.745Z,72.05
2017-09-20T10:12:47.248Z,72.56
2017-09-20T10:15:14.767Z,73.09
2017-09-20T10:17:42.273Z,72.69
2017-09-20T10:20:09.801Z,72.16
2017-09-20T10:22:37.282Z,72.04
2017-09-20T10:25:05.133Z,72.27
2017-09-20T10:27:32.675Z,72.25
2017-09-20T10:30:00.282Z,72.20
2017-09-20T10:32:27.786Z,71.88
2017-09-20T10:34:55.311Z,71.43
2017-09-20T10:37:23.084Z,71.25
2017-09-20T10:39:50.591Z,71.13
2017-09-20T10:42:18.783Z,70.74
2017-09-20T10:44:46.992Z,71.17
2017-09-20T10:47:14.500Z,71.53
2017-09-20T10:49:42.042Z,71.42
2017-09-20T10:52:09.578Z,71.55
2017-09-20T10:54:37.129Z,71.81
2017-09-20T10:57:04.679Z,71.57
2017-09-20T10:59:32.166Z,71.38
2017-09-20T11:01:59.669Z,71.25
2017-09-20T11:04:27.569Z,71.08
2017-09-20T11:06:55.080Z,71.52
2017-09-20T11:09:22.643Z,71.70
2017-09-20T11:11:50.135Z,72.10
2017-09-20T11:14:17.674Z,72.08
2017-09-20T11:16:45.153Z,72.35
2017-09-20T11:19:12.668Z,72.11
2017-09-20T11:21:40.145Z,71.51
2017-09-20T11:24:07.640Z,70.76
2017-09-20T11:26:35.128Z,70.16
2017-09-20T11:29:02.598Z,69.69
2017-09-20T11:31:30.169Z,69.98
2017-09-20T11:33:57.645Z,69.99
2017-09-20T11:36:25.129Z,70.32
2017-09-20T11:38:52.641Z,70.73
2017-09-20T11:41:20.974Z,71.69
2017-09-20T11:43:48.489Z,72.12
2017-09-20T11:46:16.026Z,72.79
2017-09-20T11:48:43.609Z,73.19
2017-09-20T11:51:11.705Z,72.78
2017-09-20T11:53:39.226Z,71.95
2017-09-20T11:56:06.702Z,71.90
2017-09-20T11:58:34.193Z,72.10
2017-09-20T12:01:01.740Z,71.86
2017-09-20T12:03:29.272Z,71.37
2017-09-20T12:05:56.730Z,71.19
2017-09-20T12:08:24.229Z,70.68
2017-09-20T12:10:51.691Z,71.05
2017-09-20T12:13:19.209Z,71.25
2017-09-20T12:15:46.695Z,71.00
2017-09-20T12:18:14.235Z,70.94
2017-09-20T12:20:41.786Z,71.08
2017-09-20T12:23:09.285Z,71.17
2017-09-20T12:25:36.825Z,71.09
2017-09-20T12:28:04.397Z,70.81
2017-09-20T12:30:32.814Z,70.29
2017-09-20T12:33:00.391Z,70.61
2017-09-20T12:35:27.896Z,70.37
2017-09-20T12:37:55.406Z,70.38
2017-09-20T12:40:22.893Z,70.22
2017-09-20T12:42:50.374Z,69.49
2017-09-20T12:45:18.059Z,69.77
2017-09-20T12:47:45.567Z,70.21
2017-09-20T12:50:13.090Z,70.25
2017-09-20T12:52:40.596Z,70.56
2017-09-20T12:55:08.078Z,70.69
2017-09-20T12:57:35.588Z,71.02
2017-09-20T13:00:03.130Z,71.17
2017-09-20T13:02:30.619Z,71.32
2017-09-20T13:04:58.148Z,71.26
2017-09-20T13:07:25.733Z,70.96
2017-09-20T13:09:53.309Z,70.79
2017-09-20T13:12:20.813Z,70.45
2017-09-20T13:14:48.315Z,70.60
2017-09-20T13:17:15.835Z,70.27
2017-09-20T13:19:43.330Z,70.33
2017-09-20T13:22:10.824Z,70.62
2017-09-20T13:24:38.402Z,71.70
2017-09-20T13:27:05.893Z,71.99
2017-09-20T13:29:33.530Z,71.70
2017-09-20T13:32:01.049Z,71.76
2017-09-20T13:34:28.606Z,71.73
2017-09-20T13:36:56.113Z,71.33
2017-09-20T13:39:23.655Z,70.67
2017-09-20T13:41:51.233Z,70.11
2017-09-20T13:44:18.741Z,69.97
2017-09-20T13:46:46.245Z,69.85
2017-09-20T13:49:13.733Z,69.44
2017-09-20T13:51:41.265Z,69.08
2017-09-20T13:54:08.769Z,67.90
2017-09-20T13:56:36.359Z,67.79
2017-09-20T13:59:03.849Z,68.19
2017-09-20T14:01:31.351Z,67.80
2017-09-20T14:04:00.033Z,66.86
2017-09-20T14:06:27.581Z,65.20
2017-09-20T14:08:55.134Z,63.56
2017-09-20T14:11:23.598Z,61.54
2017-09-20T14:13:51.110Z,60.56
2017-09-20T14:16:19.650Z,59.26
2017-09-20T14:18:47.209Z,58.66
2017-09-20T14:21:14.785Z,58.63
2017-09-20T14:23:42.351Z,57.47
2017-09-20T14:26:09.848Z,56.44
2017-09-20T14:28:37.412Z,55.35
2017-09-20T14:31:04.968Z,54.78
2017-09-20T14:33:32.433Z,53.41
2017-09-20T14:35:59.935Z,53.15
2017-09-20T14:38:27.425Z,53.28
2017-09-20T14:40:54.935Z,51.75
2017-09-20T14:43:22.411Z,51.28
2017-09-20T14:45:49.919Z,50.90
2017-09-20T14:48:17.385Z,51.06
2017-09-20T14:50:44.859Z,51.26
2017-09-20T14:53:12.394Z,50.12
2017-09-20T14:55:40.427Z,49.21
2017-09-20T14:58:07.999Z,48.63
2017-09-20T15:00:35.512Z,48.94
2017-09-20T15:03:03.041Z,48.53
2017-09-20T15:05:30.570Z,48.24
2017-09-20T15:07:58.074Z,48.44
2017-09-20T15:10:25.625Z,47.59
2017-09-20T15:12:53.163Z,47.62
2017-09-20T15:15:20.675Z,48.31
2017-09-20T15:17:48.152Z,47.46
2017-09-20T15:20:15.662Z,47.20
2017-09-20T15:22:43.154Z,47.09
2017-09-20T15:25:10.650Z,47.20
2017-09-20T15:27:38.150Z,48.58
2017-09-20T15:30:05.691Z,50.24
2017-09-20T15:32:33.180Z,52.18
2017-09-20T15:35:00.636Z,53.56
2017-09-20T15:37:28.138Z,54.25
2017-09-20T15:39:55.606Z,57.79
2017-09-20T15:42:23.153Z,57.64
2017-09-20T15:44:50.590Z,56.18
2017-09-20T15:47:18.097Z,57.29
2017-09-20T15:49:45.569Z,57.37
2017-09-20T15:52:13.073Z,57.42
2017-09-20T15:54:41.911Z,56.76
2017-09-20T15:57:09.736Z,57.35
2017-09-20T15:59:37.233Z,57.19
2017-09-20T16:02:04.693Z,57.05
2017-09-20T16:04:32.756Z,55.61
2017-09-20T16:07:00.240Z,57.15
2017-09-20T16:09:27.792Z,58.25
2017-09-20T16:11:55.266Z,58.52
2017-09-20T16:14:22.805Z,58.99
2017-09-20T16:16:50.276Z,59.24
2017-09-20T16:19:17.823Z,59.57
2017-09-20T16:21:45.311Z,60.42
2017-09-20T16:24:12.795Z,60.38
2017-09-20T16:26:40.288Z,61.25
2017-09-20T16:29:07.765Z,61.84
2017-09-20T16:31:36.116Z,61.88
2017-09-20T16:34:03.596Z,62.49
2017-09-20T16:36:31.075Z,62.97
2017-09-20T16:38:59.394Z,63.09
2017-09-20T16:41:26.889Z,63.19
2017-09-20T16:43:54.369Z,63.50
2017-09-20T16:46:21.858Z,63.75
2017-09-20T16:48:49.353Z,64.20
2017-09-20T16:51:16.826Z,64.20
2017-09-20T16:53:44.321Z,64.29
2017-09-20T16:56:11.813Z,64.95
2017-09-20T16:58:39.369Z,65.22
2017-09-20T17:01:07.414Z,65.44
2017-09-20T17:03:34.881Z,65.50
2017-09-20T17:06:02.401Z,65.72
2017-09-20T17:08:29.923Z,65.96
2017-09-20T17:10:57.441Z,65.93
2017-09-20T17:13:24.937Z,66.37
2017-09-20T17:15:52.455Z,66.35
2017-09-20T17:18:19.950Z,66.50
2017-09-20T17:20:47.424Z,66.78
2017-09-20T17:23:14.897Z,67.15
2017-09-20T17:25:42.353Z,67.18
2017-09-20T17:28:09.840Z,67.55
2017-09-20T17:30:37.301Z,68.00
2017-09-20T17:33:04.809Z,68.51
2017-09-20T17:35:32.341Z,68.57
2017-09-20T17:37:59.819Z,68.25
2017-09-20T17:40:27.297Z,68.76
2017-09-20T17:42:54.815Z,69.15
2017-09-20T17:45:22.300Z,69.11
2017-09-20T17:47:49.821Z,68.94
2017-09-20T17:50:17.308Z,68.50
2017-09-20T17:52:44.789Z,68.59
2017-09-20T17:55:14.001Z,68.78
2017-09-20T17:57:41.526Z,68.91
2017-09-20T18:00:09.002Z,69.18
2017-09-20T18:02:36.554Z,69.86
2017-09-20T18:05:04.022Z,70.25
2017-09-20T18:07:31.515Z,70.18
2017-09-20T18:09:59.004Z,69.89
2017-09-20T18:12:26.464Z,69.92
2017-09-20T18:14:53.970Z,69.93
2017-09-20T18:17:21.586Z,69.98
2017-09-20T18:19:49.078Z,70.09
2017-09-20T18:22:16.566Z,70.34
2017-09-20T18:24:44.099Z,70.97
2017-09-20T18:27:11.565Z,71.09
2017-09-20T18:29:39.084Z,71.33
2017-09-20T18:32:06.554Z,71.34
2017-09-20T18:34:34.064Z,71.61
2017-09-20T18:37:01.546Z,71.59
2017-09-20T18:39:29.043Z,72.05
2017-09-20T18:41:56.693Z,72.47
2017-09-20T18:44:24.173Z,72.58
2017-09-20T18:46:51.642Z,72.55
2017-09-20T18:49:19.168Z,72.70
2017-09-20T18:51:46.710Z,73.11
2017-09-20T18:54:14.197Z,73.12
2017-09-20T18:56:41.734Z,73.33
2017-09-20T18:59:09.226Z,73.60
2017-09-20T19:01:36.788Z,74.03
2017-09-20T19:04:04.276Z,73.92
2017-09-20T19:06:31.789Z,73.85
2017-09-20T19:08:59.290Z,73.79
2017-09-20T19:11:26.789Z,74.00
2017-09-20T19:13:54.304Z,74.50
2017-09-20T19:16:22.153Z,74.70
2017-09-20T19:18:49.709Z,74.53
2017-09-20T19:21:17.211Z,74.58
2017-09-20T19:23:44.721Z,74.41
2017-09-20T19:26:12.286Z,74.73
2017-09-20T19:28:39.864Z,75.33
2017-09-20T19:31:08.290Z,75.33
2017-09-20T19:33:35.802Z,75.49
2017-09-20T19:36:03.357Z,75.44
2017-09-20T19:38:31.186Z,75.48
2017-09-20T19:40:58.706Z,75.78
2017-09-20T19:43:26.180Z,75.86
2017-09-20T19:45:53.692Z,75.74
2017-09-20T19:48:21.171Z,75.71
2017-09-20T19:50:48.687Z,75.67
2017-09-20T19:53:16.255Z,75.43
2017-09-20T19:55:43.772Z,75.51
2017-09-20T19:58:11.318Z,75.76
2017-09-20T20:00:38.807Z,76.02
2017-09-20T20:03:06.326Z,75.92
2017-09-20T20:05:33.800Z,75.68
2017-09-20T20:08:01.306Z,75.94
2017-09-20T20:10:28.787Z,75.97
2017-09-20T20:12:56.399Z,75.88
2017-09-20T20:15:23.900Z,76.14
2017-09-20T20:17:51.425Z,76.24
2017-09-20T20:20:18.924Z,76.24
2017-09-20T20:22:46.445Z,75.87
2017-09-20T20:25:13.946Z,75.91
2017-09-20T20:27:41.464Z,75.85
2017-09-20T20:30:09.074Z,76.13
2017-09-20T20:32:36.609Z,76.15
2017-09-20T20:35:04.132Z,76.15
2017-09-20T20:37:31.629Z,76.51
2017-09-20T20:39:59.139Z,76.35
2017-09-20T20:42:26.630Z,76.16
2017-09-20T20:44:54.080Z,75.76
2017-09-20T20:47:21.573Z,74.98
2017-09-20T20:49:49.049Z,75.01
2017-09-20T20:52:16.611Z,75.29
2017-09-20T20:54:44.423Z,75.50
2017-09-20T20:57:11.883Z,75.73
2017-09-20T20:59:39.390Z,76.03
2017-09-20T21:02:06.902Z,76.05
2017-09-20T21:04:34.401Z,76.19
2017-09-20T21:07:01.875Z,76.35
2017-09-20T21:09:29.408Z,76.40
2017-09-20T21:11:56.901Z,76.38
2017-09-20T21:14:24.406Z,76.07
2017-09-20T21:16:51.893Z,76.30
2017-09-20T21:19:19.402Z,76.83
2017-09-20T21:21:46.873Z,76.99
2017-09-20T21:24:14.357Z,76.52
2017-09-20T21:26:41.836Z,76.32
2017-09-20T21:29:09.287Z,76.50
2017-09-20T21:31:36.777Z,76.74
2017-09-20T21:34:04.228Z,77.06
2017-09-20T21:36:31.725Z,77.15
2017-09-20T21:38:59.242Z,76.84
2017-09-20T21:41:26.710Z,76.79
2017-09-20T21:43:54.203Z,76.21
2017-09-20T21:46:21.655Z,75.79
2017-09-20T21:48:49.209Z,75.69
2017-09-20T21:51:16.701Z,75.67
2017-09-20T21:53:44.201Z,75.81
2017-09-20T21:56:11.656Z,76.04
2017-09-20T21:58:39.148Z,75.73
2017-09-20T22:01:06.610Z,75.93
2017-09-20T22:03:34.098Z,76.24
2017-09-20T22:06:01.562Z,76.13
2017-09-20T22:08:29.036Z,75.70
2017-09-20T22:10:56.513Z,75.39
2017-09-20T22:13:24.057Z,76.08
2017-09-20T22:16:03.252Z,76.37
2017-09-20T22:18:42.393Z,76.07
2017-09-20T22:21:21.537Z,75.93
2017-09-20T22:24:00.891Z,76.03
2017-09-20T22:26:40.057Z,77.00
2017-09-20T22:29:07.510Z,76.99
2017-09-20T22:31:35.025Z,76.72
2017-09-20T22:34:02.490Z,76.29
2017-09-20T22:36:30.081Z,75.69
2017-09-20T22:38:57.542Z,75.77
2017-09-20T22:41:25.016Z,75.72
2017-09-20T22:43:52.526Z,75.49
2017-09-20T22:46:19.969Z,75.67
2017-09-20T22:48:47.480Z,75.62
2017-09-20T22:51:14.961Z,75.73
2017-09-20T22:53:42.886Z,76.25
2017-09-20T22:56:10.337Z,76.49
2017-09-20T22:58:37.834Z,76.65
2017-09-20T23:01:05.302Z,76.63
2017-09-20T23:03:32.772Z,76.08
2017-09-20T23:06:00.258Z,75.76
2017-09-20T23:08:27.742Z,75.44
2017-09-20T23:10:55.212Z,75.66
2017-09-20T23:13:22.669Z,75.35
2017-09-20T23:15:50.136Z,75.73
2017-09-20T23:18:17.606Z,75.73
2017-09-20T23:20:45.105Z,76.27
2017-09-20T23:23:12.570Z,76.28
2017-09-20T23:25:40.060Z,76.12
2017-09-20T23:28:07.535Z,76.01
2017-09-20T23:30:34.994Z,75.78
2017-09-20T23:33:02.498Z,75.85
2017-09-20T23:35:29.976Z,75.65
2017-09-20T23:37:57.461Z,75.55
2017-09-20T23:40:24.921Z,75.57
2017-09-20T23:42:52.447Z,75.76
2017-09-20T23:45:19.908Z,75.88
2017-09-20T23:47:47.364Z,76.31
2017-09-20T23:50:14.849Z,76.33
2017-09-20T23:52:42.314Z,76.26
2017-09-20T23:55:09.796Z,76.28
2017-09-20T23:57:37.244Z,76.33
